Dades meteomassalio
Diari Summary for Juliol 31, 2017 Units:  English    Metric   Both
« Previous Day
Next Day »
Diari Semanal Mensual Anual Personalitzat
  Maxima: Minima: Mijana:
Temperatura: TemperatureC °F 18.6 °F 28.1 °F
Rosada: DewpointC °F 12.1 °F 16.7 °F
Humitat: Humidity % 24 % 53 %
Velocitat del vent: WindSpeedKMH mph 0.0 mph 9.8 mph
Racha vent: WindSpeedGustKMH mph - -
Vent:- - SE
Pressio: PressurehPa in 1004.3 in -
Pluja: 0.0 in    
Historical Graphs
 
 
Tabular Data for Juliol 31, 2017
Time Temperature Dew Point Pressure Wind Wind Speed Wind Gust Humidity Rainfall Rate (Hourly) solar Conditions
TemperatureC °F DewpointC °F PressurehPa in Calm     Humidity % HourlyPrecipMM in SolarRadiationWatts/m^2 W/m2 Conditions
00:03 26.2 °F 18.6 °F 1008.0 in Calm     63 % 0.0 in 0.0 W/m2 CLR
00:09 26.1 °F 19.0 °F 1008.0 in Calm     65 % 0.0 in 0.0 W/m2 CLR
00:14 26.0 °F 18.9 °F 1008.4 in Calm     65 % 0.0 in 0.0 W/m2 CLR
00:19 25.9 °F 18.8 °F 1008.0 in Calm     65 % 0.0 in 0.0 W/m2 CLR
00:24 25.9 °F 19.1 °F 1008.0 in Calm     66 % 0.0 in 0.0 W/m2 CLR
00:29 25.8 °F 18.9 °F 1008.0 in Calm     66 % 0.0 in 0.0 W/m2 CLR
00:34 25.7 °F 18.9 °F 1008.0 in Calm     66 % 0.0 in 0.0 W/m2 CLR
00:39 25.7 °F 18.7 °F 1008.0 in Calm     65 % 0.0 in 0.0 W/m2 CLR
00:44 25.7 °F 18.9 °F 1008.0 in Calm     66 % 0.0 in 0.0 W/m2 CLR
00:49 25.7 °F 18.9 °F 1008.0 in Calm     66 % 0.0 in 0.0 W/m2 CLR
00:54 25.8 °F 18.7 °F 1008.0 in Calm     65 % 0.0 in 0.0 W/m2 CLR
00:59 25.8 °F 18.7 °F 1008.0 in Calm     65 % 0.0 in 0.0 W/m2 CLR
01:04 25.8 °F 18.9 °F 1008.0 in Calm     66 % 0.0 in 0.0 W/m2 CLR
01:09 25.7 °F 19.1 °F 1008.0 in ENE 5.6 mph 5.6 mph 67 % 0.0 in 0.0 W/m2 CLR
01:14 25.7 °F 19.1 °F 1008.0 in ENE 3.7 mph   67 % 0.0 in 0.0 W/m2 CLR
01:19 25.7 °F 19.1 °F 1008.0 in Calm     67 % 0.0 in 0.0 W/m2 CLR
01:24 25.6 °F 19.0 °F 1008.4 in North 8.0 mph 8.0 mph 67 % 0.0 in 0.0 W/m2 CLR
01:29 25.6 °F 19.0 °F 1008.7 in NNW 16.7 mph 16.7 mph 67 % 0.0 in 0.0 W/m2 CLR
01:34 25.6 °F 18.6 °F 1008.7 in Calm     65 % 0.0 in 0.0 W/m2 CLR
01:35 25.6 °F 18.6 °F 1008.7 in Calm     65 % 0.0 in 0.0 W/m2 CLR
01:39 25.8 °F 19.2 °F 1008.7 in NNE 8.0 mph 8.0 mph 67 % 0.0 in 0.0 W/m2 CLR
01:44 25.6 °F 19.4 °F 1009.0 in NNW 11.3 mph 11.3 mph 69 % 0.0 in 0.0 W/m2 CLR
01:49 25.4 °F 19.3 °F 1008.7 in ENE 3.7 mph   69 % 0.0 in 0.0 W/m2 CLR
01:54 25.3 °F 19.4 °F 1008.7 in Calm     70 % 0.0 in 0.0 W/m2 CLR
01:59 25.2 °F 19.6 °F 1008.7 in Calm     71 % 0.0 in 0.0 W/m2 CLR
02:04 25.0 °F 19.8 °F 1008.7 in NNE 5.6 mph 5.6 mph 73 % 0.0 in 0.0 W/m2 CLR
02:09 24.8 °F 19.9 °F 1008.7 in North 3.2 mph 3.2 mph 74 % 0.0 in 0.0 W/m2 CLR
02:14 24.7 °F 19.9 °F 1009.0 in NW 6.4 mph 6.4 mph 75 % 0.0 in 0.0 W/m2 CLR
02:19 24.6 °F 19.7 °F 1009.0 in Calm     74 % 0.0 in 0.0 W/m2 CLR
02:24 24.6 °F 19.7 °F 1009.0 in Calm     74 % 0.0 in 0.0 W/m2 CLR
02:29 24.6 °F 19.7 °F 1009.0 in Calm     74 % 0.0 in 0.0 W/m2 CLR
02:34 24.7 °F 19.7 °F 1009.0 in Calm     74 % 0.0 in 0.0 W/m2 CLR
02:39 24.6 °F 19.4 °F 1009.4 in WNW 9.3 mph 9.3 mph 73 % 0.0 in 0.0 W/m2 CLR
02:44 24.7 °F 19.8 °F 1009.4 in WNW 7.4 mph 7.4 mph 74 % 0.0 in 0.0 W/m2 CLR
02:49 24.8 °F 20.1 °F 1009.4 in WNW 16.7 mph 16.7 mph 75 % 0.0 in 0.0 W/m2 CLR
02:54 24.8 °F 20.1 °F 1009.4 in Calm     75 % 0.0 in 0.0 W/m2 CLR
02:59 24.8 °F 20.3 °F 1009.4 in Calm     76 % 0.0 in 0.0 W/m2 CLR
03:04 24.7 °F 20.4 °F 1009.4 in Calm     77 % 0.0 in 0.0 W/m2 CLR
03:09 24.6 °F 20.3 °F 1009.4 in Calm     77 % 0.0 in 0.0 W/m2 CLR
03:14 24.5 °F 20.4 °F 1009.4 in Calm     78 % 0.0 in 0.0 W/m2 CLR
03:19 24.4 °F 20.1 °F 1009.4 in WNW 11.1 mph 11.1 mph 77 % 0.0 in 0.0 W/m2 CLR
03:24 24.3 °F 19.8 °F 1009.4 in West 7.4 mph 7.4 mph 76 % 0.0 in 0.0 W/m2 CLR
03:29 24.2 °F 19.3 °F 1009.4 in WSW 5.6 mph 5.6 mph 74 % 0.0 in 0.0 W/m2 CLR
03:34 24.1 °F 18.7 °F 1009.4 in WNW 6.4 mph 6.4 mph 72 % 0.0 in 0.0 W/m2 CLR
03:39 24.0 °F 18.7 °F 1009.4 in Calm     72 % 0.0 in 0.0 W/m2 CLR
03:44 23.9 °F 18.1 °F 1009.4 in WNW 7.4 mph 7.4 mph 70 % 0.0 in 0.0 W/m2 CLR
03:49 23.8 °F 17.7 °F 1009.4 in Calm     69 % 0.0 in 0.0 W/m2 CLR
03:54 23.7 °F 17.7 °F 1009.4 in Calm     69 % 0.0 in 0.0 W/m2 CLR
03:59 23.6 °F 17.6 °F 1009.7 in Calm     69 % 0.0 in 0.0 W/m2 CLR
04:00 23.5 °F 17.5 °F 1009.7 in Calm     69 % 0.0 in 0.0 W/m2 CLR
04:05 23.4 °F 17.2 °F 1009.7 in Calm     68 % 0.0 in 0.0 W/m2 CLR
04:10 23.3 °F 17.1 °F 1009.7 in Calm     68 % 0.0 in 0.0 W/m2 CLR
04:16 23.3 °F 16.8 °F 1009.7 in Calm     67 % 0.0 in 0.0 W/m2 CLR
04:21 23.2 °F 16.8 °F 1009.7 in Calm     67 % 0.0 in 0.0 W/m2 CLR
04:25 23.1 °F 16.7 °F 1009.7 in Calm     67 % 0.0 in 0.0 W/m2 CLR
04:31 22.9 °F 16.7 °F 1009.7 in Calm     68 % 0.0 in 0.0 W/m2 CLR
04:36 22.8 °F 16.8 °F 1009.7 in Calm     69 % 0.0 in 0.0 W/m2 CLR
04:41 22.7 °F 16.7 °F 1009.7 in Calm     69 % 0.0 in 0.0 W/m2 CLR
04:46 22.6 °F 16.6 °F 1009.7 in Calm     69 % 0.0 in 0.0 W/m2 CLR
04:51 22.4 °F 16.7 °F 1009.7 in Calm     70 % 0.0 in 0.0 W/m2 CLR
04:56 22.3 °F 16.8 °F 1009.7 in Calm     71 % 0.0 in 0.0 W/m2 CLR
05:01 22.1 °F 16.6 °F 1009.7 in Calm     71 % 0.0 in 0.0 W/m2 CLR
05:06 21.9 °F 16.4 °F 1009.7 in Calm     71 % 0.0 in 0.0 W/m2 CLR
05:11 21.8 °F 16.3 °F 1009.7 in Calm     71 % 0.0 in 0.0 W/m2 CLR
05:16 21.7 °F 16.4 °F 1009.7 in Calm     72 % 0.0 in 0.0 W/m2 CLR
05:21 21.5 °F 16.4 °F 1009.7 in Calm     73 % 0.0 in 0.0 W/m2 CLR
05:26 21.4 °F 16.3 °F 1009.7 in Calm     73 % 0.0 in 0.0 W/m2 CLR
05:31 21.3 °F 16.2 °F 1009.7 in Calm     73 % 0.0 in 0.0 W/m2 CLR
05:36 21.1 °F 16.3 °F 1009.7 in Calm     74 % 0.0 in 0.0 W/m2 CLR
05:41 21.0 °F 16.2 °F 1009.7 in Calm     74 % 0.0 in 0.0 W/m2 CLR
05:46 20.8 °F 16.0 °F 1009.7 in Calm     74 % 0.0 in 0.0 W/m2 CLR
05:51 20.6 °F 16.0 °F 1009.7 in Calm     75 % 0.0 in 0.0 W/m2 CLR
05:56 20.5 °F 15.9 °F 1009.7 in Calm     75 % 0.0 in 0.0 W/m2 CLR
06:01 20.3 °F 15.9 °F 1009.7 in Calm     76 % 0.0 in 0.0 W/m2 CLR
06:06 20.1 °F 15.7 °F 1009.7 in Calm     76 % 0.0 in 0.0 W/m2 CLR
06:11 20.0 °F 15.7 °F 1009.7 in Calm     76 % 0.0 in 0.0 W/m2 CLR
06:16 19.9 °F 15.7 °F 1009.7 in Calm     77 % 0.0 in 0.0 W/m2 CLR
06:21 19.8 °F 15.6 °F 1009.7 in Calm     77 % 0.0 in 0.0 W/m2 CLR
06:26 19.7 °F 15.6 °F 1009.7 in Calm     77 % 0.0 in 0.0 W/m2 CLR
06:31 19.6 °F 15.4 °F 1009.7 in Calm     77 % 0.0 in 0.0 W/m2 CLR
06:36 19.5 °F 15.6 °F 1009.7 in Calm     78 % 0.0 in 0.0 W/m2 CLR
06:41 19.4 °F 15.4 °F 1009.7 in Calm     78 % 0.0 in 0.0 W/m2 CLR
06:46 19.3 °F 15.3 °F 1009.7 in Calm     78 % 0.0 in 0.0 W/m2 OVC
06:51 19.1 °F 15.2 °F 1009.7 in Calm     78 % 0.0 in 0.0 W/m2 OVC
06:56 18.9 °F 15.2 °F 1009.7 in Calm     79 % 0.0 in 0.0 W/m2 OVC
06:57 18.9 °F 15.2 °F 1010.0 in Calm     79 % 0.0 in 0.0 W/m2 OVC
07:02 18.8 °F 15.1 °F 1010.0 in Calm     79 % 0.0 in 7.0 W/m2 BKN
07:07 18.7 °F 15.2 °F 1010.0 in Calm     80 % 0.0 in 11.0 W/m2 BKN
07:12 18.7 °F 15.2 °F 1010.0 in Calm     80 % 0.0 in 14.0 W/m2 BKN
07:17 18.6 °F 15.3 °F 1010.0 in Calm     81 % 0.0 in 18.0 W/m2 BKN
07:22 18.6 °F 15.1 °F 1010.0 in Calm     80 % 0.0 in 23.0 W/m2 BKN
07:27 18.6 °F 15.1 °F 1010.0 in Calm     80 % 0.0 in 26.0 W/m2 BKN
07:32 18.6 °F 15.1 °F 1010.0 in Calm     80 % 0.0 in 33.0 W/m2 BKN
07:37 18.7 °F 15.2 °F 1010.0 in Calm     80 % 0.0 in 35.0 W/m2 BKN
07:42 18.8 °F 15.3 °F 1010.0 in Calm     80 % 0.0 in 47.0 W/m2 SCT
07:47 18.8 °F 15.3 °F 1010.0 in Calm     80 % 0.0 in 58.0 W/m2 SCT
07:52 18.9 °F 15.4 °F 1010.0 in Calm     80 % 0.0 in 72.0 W/m2 FEW
07:57 19.0 °F 15.3 °F 1010.0 in Calm     79 % 0.0 in 83.0 W/m2 FEW
08:02 19.2 °F 15.7 °F 1010.0 in Calm     80 % 0.0 in 95.0 W/m2 FEW
08:07 19.4 °F 15.5 °F 1010.0 in Calm     78 % 0.0 in 111.0 W/m2 CLR
08:12 19.7 °F 15.6 °F 1010.0 in Calm     77 % 0.0 in 127.0 W/m2 CLR
08:17 19.9 °F 15.8 °F 1010.0 in Calm     77 % 0.0 in 144.0 W/m2 CLR
08:22 20.2 °F 16.3 °F 1010.0 in Calm     78 % 0.0 in 134.0 W/m2 CLR
08:27 20.5 °F 16.3 °F 1010.0 in Calm     77 % 0.0 in 174.0 W/m2 CLR
08:32 20.9 °F 16.5 °F 1010.0 in Calm     76 % 0.0 in 193.0 W/m2 CLR
08:37 21.2 °F 16.6 °F 1010.0 in Calm     75 % 0.0 in 211.0 W/m2 CLR
08:42 21.3 °F 16.5 °F 1010.0 in Calm     74 % 0.0 in 223.0 W/m2 CLR
08:47 21.6 °F 16.3 °F 1010.0 in Calm     72 % 0.0 in 211.0 W/m2 CLR
08:52 21.8 °F 16.5 °F 1010.0 in Calm     72 % 0.0 in 251.0 W/m2 CLR
08:57 22.1 °F 16.6 °F 1010.0 in Calm     71 % 0.0 in 264.0 W/m2 CLR
09:02 22.4 °F 16.7 °F 1010.0 in Calm     70 % 0.0 in 281.0 W/m2 CLR
09:07 22.8 °F 16.8 °F 1010.0 in Calm     69 % 0.0 in 299.0 W/m2 CLR
09:12 23.1 °F 16.9 °F 1010.0 in Calm     68 % 0.0 in 315.0 W/m2 CLR
09:17 23.3 °F 16.8 °F 1010.0 in Calm     67 % 0.0 in 330.0 W/m2 CLR
09:22 23.3 °F 16.8 °F 1010.0 in Calm     67 % 0.0 in 343.0 W/m2 CLR
09:27 23.6 °F 16.9 °F 1010.0 in Calm     66 % 0.0 in 359.0 W/m2 CLR
09:32 23.9 °F 16.9 °F 1010.0 in Calm     65 % 0.0 in 374.0 W/m2 CLR
09:37 24.2 °F 17.0 °F 1010.0 in Calm     64 % 0.0 in 387.0 W/m2 CLR
09:42 24.4 °F 16.9 °F 1010.0 in Calm     63 % 0.0 in 408.0 W/m2 CLR
09:47 24.3 °F 16.8 °F 1010.0 in Calm     63 % 0.0 in 272.0 W/m2 CLR
09:52 24.3 °F 16.8 °F 1010.0 in Calm     63 % 0.0 in 165.0 W/m2 CLR
09:57 24.5 °F 17.0 °F 1010.0 in Calm     63 % 0.0 in 454.0 W/m2 CLR
10:02 24.5 °F 17.0 °F 1010.0 in ENE 7.4 mph 7.4 mph 63 % 0.0 in 471.0 W/m2 CLR
10:07 24.6 °F 17.1 °F 1009.7 in ENE 3.7 mph 3.7 mph 63 % 0.0 in 483.0 W/m2 CLR
10:12 24.8 °F 17.3 °F 1009.7 in Calm   0.3 mph 63 % 0.0 in 497.0 W/m2 CLR
10:17 25.1 °F 17.3 °F 1009.7 in NE 5.6 mph 5.6 mph 62 % 0.0 in 513.0 W/m2 CLR
10:22 25.1 °F 17.0 °F 1009.7 in NE 5.6 mph 5.6 mph 61 % 0.0 in 526.0 W/m2 CLR
10:27 25.1 °F 17.0 °F 1009.7 in ENE 5.6 mph   61 % 0.0 in 548.0 W/m2 CLR
10:32 25.1 °F 17.3 °F 1009.7 in Calm     62 % 0.0 in 563.0 W/m2 CLR
10:37 25.3 °F 17.5 °F 1009.7 in ENE 6.4 mph 6.4 mph 62 % 0.0 in 578.0 W/m2 CLR
10:42 25.8 °F 17.7 °F 1009.7 in NE 5.6 mph 5.6 mph 61 % 0.0 in 592.0 W/m2 CLR
10:47 26.1 °F 18.0 °F 1009.7 in Calm     61 % 0.0 in 606.0 W/m2 CLR
10:52 26.1 °F 17.4 °F 1009.7 in Calm     59 % 0.0 in 621.0 W/m2 CLR
10:54 26.2 °F 17.8 °F 1009.7 in Calm     60 % 0.0 in 624.0 W/m2 CLR
10:59 26.4 °F 17.8 °F 1009.7 in Calm     59 % 0.0 in 640.0 W/m2 CLR
11:04 26.6 °F 17.9 °F 1009.7 in ENE 9.3 mph 9.3 mph 59 % 0.0 in 652.0 W/m2 CLR
11:09 26.6 °F 17.9 °F 1009.4 in ENE 9.7 mph 9.7 mph 59 % 0.0 in 661.0 W/m2 CLR
11:14 26.7 °F 18.1 °F 1009.4 in Calm     59 % 0.0 in 673.0 W/m2 CLR
11:19 26.9 °F 18.2 °F 1009.4 in NE 8.0 mph 8.0 mph 59 % 0.0 in 680.0 W/m2 CLR
11:24 27.2 °F 18.5 °F 1009.4 in NE 8.0 mph 8.0 mph 59 % 0.0 in 698.0 W/m2 CLR
11:29 27.3 °F 18.3 °F 1009.4 in Calm     58 % 0.0 in 708.0 W/m2 CLR
11:34 27.5 °F 18.5 °F 1009.4 in NE 7.4 mph 7.4 mph 58 % 0.0 in 719.0 W/m2 CLR
11:39 27.7 °F 18.7 °F 1009.4 in Calm     58 % 0.0 in 729.0 W/m2 CLR
11:44 28.0 °F 18.7 °F 1009.4 in Calm     57 % 0.0 in 742.0 W/m2 CLR
11:49 28.1 °F 18.8 °F 1009.0 in NE 9.7 mph 9.7 mph 57 % 0.0 in 751.0 W/m2 CLR
11:54 28.1 °F 18.8 °F 1009.0 in ENE 11.1 mph 11.1 mph 57 % 0.0 in 761.0 W/m2 CLR
11:59 28.1 °F 18.8 °F 1009.0 in East 5.6 mph 5.6 mph 57 % 0.0 in 770.0 W/m2 CLR
12:04 28.1 °F 19.1 °F 1009.0 in ENE 14.8 mph 14.8 mph 58 % 0.0 in 779.0 W/m2 CLR
12:09 28.2 °F 19.1 °F 1009.0 in East 1.9 mph   58 % 0.0 in 789.0 W/m2 CLR
12:14 28.2 °F 19.1 °F 1009.0 in ENE 11.1 mph 11.1 mph 58 % 0.0 in 793.0 W/m2 CLR
12:19 28.4 °F 19.4 °F 1009.0 in NE 9.3 mph 9.3 mph 58 % 0.0 in 802.0 W/m2 CLR
12:24 28.8 °F 19.2 °F 1008.7 in NE 13.0 mph 13.0 mph 56 % 0.0 in 812.0 W/m2 CLR
12:29 29.0 °F 19.3 °F 1008.7 in NE 6.4 mph 6.4 mph 56 % 0.0 in 817.0 W/m2 CLR
12:34 29.3 °F 19.6 °F 1008.7 in NNE 7.4 mph 7.4 mph 56 % 0.0 in 826.0 W/m2 CLR
12:39 29.7 °F 19.7 °F 1008.4 in NNE 14.8 mph 14.8 mph 55 % 0.0 in 831.0 W/m2 CLR
12:44 29.8 °F 19.8 °F 1008.4 in ENE 11.1 mph 11.1 mph 55 % 0.0 in 840.0 W/m2 CLR
12:45 29.9 °F 19.9 °F 1008.4 in NE 11.1 mph 11.1 mph 55 % 0.0 in 840.0 W/m2 CLR
12:50 30.2 °F 19.9 °F 1008.4 in NE 11.1 mph 11.1 mph 54 % 0.0 in 846.0 W/m2 CLR
12:55 30.6 °F 20.2 °F 1008.0 in NE 9.7 mph 9.7 mph 54 % 0.0 in 858.0 W/m2 CLR
13:00 30.9 °F 20.6 °F 1008.0 in NE 14.5 mph 14.5 mph 54 % 0.0 in 863.0 W/m2 CLR
13:05 31.3 °F 20.6 °F 1008.0 in ENE 5.6 mph   53 % 0.0 in 863.0 W/m2 CLR
13:10 31.4 °F 20.7 °F 1008.0 in NNE 12.9 mph 12.9 mph 53 % 0.0 in 868.0 W/m2 CLR
13:15 31.6 °F 20.5 °F 1007.7 in NE 12.9 mph 12.9 mph 52 % 0.0 in 870.0 W/m2 CLR
13:20 31.7 °F 20.6 °F 1007.7 in ENE 11.1 mph 11.1 mph 52 % 0.0 in 877.0 W/m2 CLR
13:25 31.9 °F 20.8 °F 1007.7 in NE 11.3 mph 11.3 mph 52 % 0.0 in 886.0 W/m2 CLR
13:30 32.3 °F 20.8 °F 1007.7 in NE 13.0 mph 13.0 mph 51 % 0.0 in 882.0 W/m2 CLR
13:35 32.3 °F 20.9 °F 1007.3 in East 9.7 mph 9.7 mph 51 % 0.0 in 886.0 W/m2 CLR
13:40 32.5 °F 20.7 °F 1007.3 in NE 16.7 mph 16.7 mph 50 % 0.0 in 888.0 W/m2 CLR
13:41 32.6 °F 21.2 °F 1007.3 in ENE 13.0 mph 13.0 mph 51 % 0.0 in 889.0 W/m2 CLR
13:46 33.0 °F 20.9 °F 1007.3 in ENE 5.6 mph 5.6 mph 49 % 0.0 in 888.0 W/m2 CLR
13:51 33.1 °F 20.9 °F 1007.3 in ENE 18.5 mph 18.5 mph 49 % 0.0 in 891.0 W/m2 CLR
13:56 33.5 °F 21.0 °F 1007.0 in East 13.0 mph 13.0 mph 48 % 0.0 in 896.0 W/m2 CLR
14:01 33.7 °F 20.5 °F 1007.0 in ESE 13.0 mph 13.0 mph 46 % 0.0 in 896.0 W/m2 CLR
14:06 33.6 °F 20.4 °F 1007.0 in ESE 11.1 mph 11.1 mph 46 % 0.0 in 896.0 W/m2 CLR
14:11 33.9 °F 20.3 °F 1007.0 in ENE 13.0 mph 13.0 mph 45 % 0.0 in 893.0 W/m2 CLR
14:16 34.1 °F 19.8 °F 1007.0 in East 16.7 mph 16.7 mph 43 % 0.0 in 898.0 W/m2 CLR
14:21 34.5 °F 19.7 °F 1006.7 in East 14.8 mph 14.8 mph 42 % 0.0 in 905.0 W/m2 CLR
14:26 34.8 °F 19.6 °F 1006.7 in East 16.7 mph 16.7 mph 41 % 0.0 in 833.0 W/m2 CLR
14:31 35.2 °F 19.6 °F 1006.7 in East 18.5 mph 18.5 mph 40 % 0.0 in 842.0 W/m2 CLR
14:36 35.4 °F 20.2 °F 1006.7 in ESE 16.7 mph 16.7 mph 41 % 0.0 in 821.0 W/m2 CLR
14:41 35.7 °F 19.6 °F 1006.3 in ESE 19.3 mph 19.3 mph 39 % 0.0 in 868.0 W/m2 CLR
14:46 35.6 °F 19.5 °F 1006.3 in East 20.4 mph 20.4 mph 39 % 0.0 in 891.0 W/m2 CLR
14:51 35.5 °F 19.0 °F 1006.3 in SE 24.1 mph 24.1 mph 38 % 0.0 in 889.0 W/m2 CLR
14:56 35.8 °F 13.9 °F 1006.3 in SSE 11.1 mph 11.1 mph 27 % 0.0 in 891.0 W/m2 CLR
15:01 36.8 °F 14.2 °F 1006.3 in South 13.0 mph 13.0 mph 26 % 0.0 in 884.0 W/m2 CLR
15:06 37.4 °F 13.4 °F 1006.3 in SW 27.8 mph 27.8 mph 24 % 0.0 in 875.0 W/m2 CLR
15:11 37.5 °F 14.1 °F 1006.0 in South 22.2 mph 22.2 mph 25 % 0.0 in 865.0 W/m2 CLR
15:16 37.6 °F 14.2 °F 1006.0 in South 24.1 mph 24.1 mph 25 % 0.0 in 868.0 W/m2 CLR
15:21 37.6 °F 14.2 °F 1006.3 in SE 27.8 mph 27.8 mph 25 % 0.0 in 798.0 W/m2 CLR
15:26 36.1 °F 18.2 °F 1006.0 in SE 42.6 mph 42.6 mph 35 % 0.0 in 724.0 W/m2 CLR
15:31 35.7 °F 18.3 °F 1006.0 in SSE 24.1 mph 24.1 mph 36 % 0.0 in 661.0 W/m2 CLR
15:36 35.7 °F 17.4 °F 1006.0 in SE 31.5 mph 31.5 mph 34 % 0.0 in 816.0 W/m2 CLR
15:41 35.7 °F 17.8 °F 1006.0 in SE 38.9 mph 38.9 mph 35 % 0.0 in 788.0 W/m2 CLR
15:46 35.6 °F 17.3 °F 1006.0 in East 32.2 mph 32.2 mph 34 % 0.0 in 830.0 W/m2 CLR
15:51 35.6 °F 17.7 °F 1006.0 in ESE 31.5 mph 31.5 mph 35 % 0.0 in 805.0 W/m2 CLR
15:56 35.2 °F 18.7 °F 1006.0 in East 24.1 mph 24.1 mph 38 % 0.0 in 809.0 W/m2 CLR
16:01 35.4 °F 18.1 °F 1005.6 in ESE 24.1 mph 24.1 mph 36 % 0.0 in 798.0 W/m2 CLR
16:06 35.6 °F 17.3 °F 1005.6 in ESE 31.5 mph 31.5 mph 34 % 0.0 in 807.0 W/m2 CLR
16:11 35.6 °F 17.3 °F 1005.3 in ESE 25.9 mph 25.9 mph 34 % 0.0 in 814.0 W/m2 CLR
16:16 35.5 °F 18.2 °F 1005.3 in SE 31.5 mph 31.5 mph 36 % 0.0 in 798.0 W/m2 CLR
16:21 35.8 °F 17.0 °F 1005.3 in SE 40.7 mph 40.7 mph 33 % 0.0 in 721.0 W/m2 CLR
16:26 35.5 °F 17.7 °F 1005.3 in SE 29.6 mph 29.6 mph 35 % 0.0 in 784.0 W/m2 CLR
16:31 35.4 °F 16.2 °F 1005.3 in SE 37.0 mph 37.0 mph 32 % 0.0 in 791.0 W/m2 CLR
16:36 36.2 °F 14.8 °F 1005.3 in SE 27.8 mph 27.8 mph 28 % 0.0 in 772.0 W/m2 CLR
16:41 36.7 °F 14.6 °F 1005.3 in SE 27.4 mph 27.4 mph 27 % 0.0 in 726.0 W/m2 CLR
16:46 36.9 °F 15.4 °F 1005.3 in ESE 25.9 mph 25.9 mph 28 % 0.0 in 717.0 W/m2 CLR
16:51 37.0 °F 13.7 °F 1005.3 in ESE 25.9 mph 25.9 mph 25 % 0.0 in 714.0 W/m2 CLR
16:56 36.8 °F 14.8 °F 1005.3 in SE 25.9 mph 25.9 mph 27 % 0.0 in 698.0 W/m2 CLR
17:01 36.3 °F 14.3 °F 1005.3 in SSE 33.3 mph 33.3 mph 27 % 0.0 in 687.0 W/m2 CLR
17:06 36.2 °F 15.3 °F 1005.3 in SSE 30.6 mph 30.6 mph 29 % 0.0 in 666.0 W/m2 CLR
17:11 35.9 °F 16.2 °F 1005.0 in ESE 29.6 mph 29.6 mph 31 % 0.0 in 652.0 W/m2 CLR
17:16 35.7 °F 15.9 °F 1005.0 in ESE 24.1 mph 24.1 mph 31 % 0.0 in 636.0 W/m2 CLR
17:21 35.8 °F 15.5 °F 1005.0 in SE 18.5 mph 18.5 mph 30 % 0.0 in 621.0 W/m2 CLR
17:27 35.8 °F 15.5 °F 1005.0 in ESE 20.9 mph 20.9 mph 30 % 0.0 in 608.0 W/m2 CLR
17:32 35.9 °F 16.6 °F 1005.0 in ESE 27.4 mph 27.4 mph 32 % 0.0 in 591.0 W/m2 CLR
17:37 35.7 °F 16.4 °F 1004.6 in ESE 13.0 mph 13.0 mph 32 % 0.0 in 577.0 W/m2 CLR
17:42 35.7 °F 16.4 °F 1005.0 in SSE 18.5 mph 18.5 mph 32 % 0.0 in 566.0 W/m2 CLR
17:47 35.6 °F 16.4 °F 1004.6 in SE 18.5 mph 18.5 mph 32 % 0.0 in 552.0 W/m2 CLR
17:52 35.5 °F 15.8 °F 1004.6 in ESE 16.7 mph 16.7 mph 31 % 0.0 in 541.0 W/m2 CLR
17:57 35.5 °F 16.3 °F 1005.0 in SE 22.2 mph 22.2 mph 32 % 0.0 in 526.0 W/m2 CLR
18:02 35.4 °F 16.2 °F 1004.6 in SE 16.7 mph 16.7 mph 32 % 0.0 in 513.0 W/m2 CLR
18:07 35.3 °F 16.1 °F 1004.6 in SE 20.4 mph 20.4 mph 32 % 0.0 in 499.0 W/m2 CLR
18:12 35.3 °F 15.6 °F 1004.6 in ESE 13.0 mph 13.0 mph 31 % 0.0 in 482.0 W/m2 CLR
18:17 35.5 °F 15.3 °F 1004.6 in SE 25.9 mph 25.9 mph 30 % 0.0 in 466.0 W/m2 CLR
18:22 35.5 °F 15.3 °F 1004.6 in SE 20.4 mph 20.4 mph 30 % 0.0 in 448.0 W/m2 CLR
18:27 35.5 °F 15.3 °F 1004.6 in ESE 20.9 mph 20.9 mph 30 % 0.0 in 431.0 W/m2 CLR
18:32 35.4 °F 15.2 °F 1004.6 in SE 17.7 mph 17.7 mph 30 % 0.0 in 415.0 W/m2 CLR
18:37 35.4 °F 15.7 °F 1004.6 in ESE 22.2 mph 22.2 mph 31 % 0.0 in 397.0 W/m2 CLR
18:42 35.3 °F 16.1 °F 1004.6 in SSE 18.5 mph 18.5 mph 32 % 0.0 in 385.0 W/m2 CLR
18:47 35.3 °F 16.1 °F 1004.6 in SE 13.0 mph 13.0 mph 32 % 0.0 in 367.0 W/m2 CLR
18:52 35.1 °F 15.9 °F 1004.3 in South 20.4 mph 20.4 mph 32 % 0.0 in 352.0 W/m2 CLR
18:57 35.2 °F 12.8 °F 1004.3 in South 24.1 mph 24.1 mph 26 % 0.0 in 336.0 W/m2 CLR
19:02 35.3 °F 12.9 °F 1004.3 in SSW 24.1 mph 24.1 mph 26 % 0.0 in 323.0 W/m2 CLR
19:07 35.2 °F 14.5 °F 1004.3 in South 18.5 mph 18.5 mph 29 % 0.0 in 306.0 W/m2 CLR
19:12 35.0 °F 12.6 °F 1004.3 in South 31.5 mph 31.5 mph 26 % 0.0 in 288.0 W/m2 CLR
19:17 35.1 °F 13.3 °F 1004.3 in SSE 31.5 mph 31.5 mph 27 % 0.0 in 276.0 W/m2 CLR
19:22 35.1 °F 12.1 °F 1004.3 in South 33.3 mph 33.3 mph 25 % 0.0 in 257.0 W/m2 CLR
19:27 35.0 °F 12.6 °F 1004.3 in South 29.6 mph 29.6 mph 26 % 0.0 in 237.0 W/m2 CLR
19:32 34.9 °F 13.1 °F 1004.3 in South 31.5 mph 31.5 mph 27 % 0.0 in 223.0 W/m2 CLR
19:37 34.8 °F 12.4 °F 1004.3 in SSE 31.5 mph 31.5 mph 26 % 0.0 in 211.0 W/m2 CLR
19:42 34.7 °F 12.3 °F 1004.3 in SSE 35.2 mph 35.2 mph 26 % 0.0 in 193.0 W/m2 CLR
19:47 34.6 °F 12.8 °F 1004.3 in South 33.3 mph 33.3 mph 27 % 0.0 in 176.0 W/m2 CLR
19:52 34.5 °F 12.8 °F 1004.3 in SSE 38.9 mph 38.9 mph 27 % 0.0 in 156.0 W/m2 CLR
19:58 34.4 °F 12.7 °F 1004.3 in SE 22.2 mph 22.2 mph 27 % 0.0 in 141.0 W/m2 CLR
20:03 34.3 °F 12.7 °F 1004.3 in South 24.1 mph 24.1 mph 27 % 0.0 in 123.0 W/m2 CLR
20:08 34.1 °F 13.0 °F 1004.3 in South 35.2 mph 35.2 mph 28 % 0.0 in 107.0 W/m2 CLR
20:13 33.9 °F 12.9 °F 1004.3 in SSE 30.6 mph 30.6 mph 28 % 0.0 in 90.0 W/m2 CLR
20:18 33.8 °F 12.7 °F 1004.3 in South 35.2 mph 35.2 mph 28 % 0.0 in 74.0 W/m2 FEW
20:23 33.6 °F 13.1 °F 1004.6 in SSW 29.6 mph 29.6 mph 29 % 0.0 in 35.0 W/m2 BKN
20:28 33.4 °F 12.9 °F 1004.3 in SSE 24.1 mph 24.1 mph 29 % 0.0 in 28.0 W/m2 BKN
20:33 33.3 °F 12.8 °F 1004.6 in South 29.6 mph 29.6 mph 29 % 0.0 in 25.0 W/m2 BKN
20:38 33.2 °F 12.7 °F 1004.6 in SSE 31.5 mph 31.5 mph 29 % 0.0 in 23.0 W/m2 BKN
20:43 33.1 °F 12.7 °F 1004.6 in SSE 31.5 mph 31.5 mph 29 % 0.0 in 21.0 W/m2 BKN
20:48 32.9 °F 12.6 °F 1004.6 in South 27.8 mph 27.8 mph 29 % 0.0 in 21.0 W/m2 BKN
20:53 32.8 °F 12.4 °F 1004.6 in South 33.3 mph 33.3 mph 29 % 0.0 in 19.0 W/m2 BKN
20:58 32.8 °F 12.4 °F 1004.6 in South 31.5 mph 31.5 mph 29 % 0.0 in 16.0 W/m2 BKN
21:03 32.6 °F 12.8 °F 1004.6 in South 16.7 mph 16.7 mph 30 % 0.0 in 12.0 W/m2 BKN
21:08 32.3 °F 13.1 °F 1004.6 in SE 16.7 mph 16.7 mph 31 % 0.0 in 7.0 W/m2 BKN
21:13 32.1 °F 13.3 °F 1004.6 in SSE 18.5 mph 18.5 mph 32 % 0.0 in 0.0 W/m2 OVC
21:18 31.9 °F 13.2 °F 1004.6 in South 20.4 mph 20.4 mph 32 % 0.0 in 0.0 W/m2 OVC
21:23 31.8 °F 12.6 °F 1005.0 in South 18.5 mph 18.5 mph 31 % 0.0 in 0.0 W/m2 OVC
21:28 31.7 °F 12.9 °F 1005.0 in South 14.8 mph 14.8 mph 32 % 0.0 in 0.0 W/m2 CLR
21:33 31.6 °F 12.4 °F 1005.0 in South 17.7 mph 17.7 mph 31 % 0.0 in 0.0 W/m2 CLR
21:38 31.5 °F 12.3 °F 1005.0 in SSE 14.8 mph 14.8 mph 31 % 0.0 in 0.0 W/m2 CLR
21:43 31.4 °F 12.7 °F 1005.3 in South 9.3 mph 9.3 mph 32 % 0.0 in 0.0 W/m2 CLR
21:48 31.2 °F 12.6 °F 1005.3 in SE 9.3 mph 9.3 mph 32 % 0.0 in 0.0 W/m2 CLR
21:53 31.2 °F 12.1 °F 1005.6 in SSE 7.4 mph 7.4 mph 31 % 0.0 in 0.0 W/m2 CLR
21:58 31.2 °F 12.1 °F 1005.6 in Calm     31 % 0.0 in 0.0 W/m2 CLR
22:03 30.8 °F 14.4 °F 1005.6 in Calm     37 % 0.0 in 0.0 W/m2 CLR
22:08 30.4 °F 14.1 °F 1006.0 in Calm     37 % 0.0 in 0.0 W/m2 CLR
22:13 30.0 °F 13.7 °F 1006.0 in Calm     37 % 0.0 in 0.0 W/m2 CLR
22:18 29.7 °F 13.8 °F 1006.0 in ESE 3.7 mph 3.7 mph 38 % 0.0 in 0.0 W/m2 CLR
22:23 29.6 °F 13.7 °F 1006.0 in SE 9.7 mph 9.7 mph 38 % 0.0 in 0.0 W/m2 CLR
22:28 29.4 °F 14.0 °F 1006.0 in SE 9.3 mph 9.3 mph 39 % 0.0 in 0.0 W/m2 CLR
22:33 29.3 °F 13.9 °F 1006.3 in SSE 1.9 mph 1.9 mph 39 % 0.0 in 0.0 W/m2 CLR
22:38 29.2 °F 14.2 °F 1006.3 in SE 13.0 mph 13.0 mph 40 % 0.0 in 0.0 W/m2 CLR
22:43 29.1 °F 14.5 °F 1006.3 in Calm     41 % 0.0 in 0.0 W/m2 CLR
22:48 29.0 °F 14.4 °F 1006.3 in SSE 3.2 mph 3.2 mph 41 % 0.0 in 0.0 W/m2 CLR
22:53 28.9 °F 14.7 °F 1006.3 in ESE 9.3 mph 9.3 mph 42 % 0.0 in 0.0 W/m2 CLR
22:58 28.8 °F 14.6 °F 1006.7 in Calm     42 % 0.0 in 0.0 W/m2 CLR
23:03 28.7 °F 14.9 °F 1006.7 in ESE 6.4 mph 6.4 mph 43 % 0.0 in 0.0 W/m2 CLR
23:08 28.7 °F 15.2 °F 1006.7 in ESE 7.4 mph 7.4 mph 44 % 0.0 in 0.0 W/m2 CLR
23:13 28.6 °F 15.2 °F 1006.7 in SE 8.0 mph 8.0 mph 44 % 0.0 in 0.0 W/m2 CLR
23:18 28.5 °F 15.1 °F 1006.7 in East 3.7 mph   44 % 0.0 in 0.0 W/m2 CLR
23:23 28.4 °F 14.9 °F 1007.0 in Calm     44 % 0.0 in 0.0 W/m2 CLR
23:28 28.3 °F 15.3 °F 1007.0 in Calm     45 % 0.0 in 0.0 W/m2 CLR
23:33 28.2 °F 15.5 °F 1007.0 in Calm     46 % 0.0 in 0.0 W/m2 CLR
23:34 28.2 °F 15.4 °F 1007.0 in Calm     46 % 0.0 in 0.0 W/m2 CLR
23:39 27.9 °F 15.9 °F 1007.0 in Calm     48 % 0.0 in 0.0 W/m2 CLR
23:44 27.7 °F 16.0 °F 1007.0 in Calm     49 % 0.0 in 0.0 W/m2 CLR
23:49 27.5 °F 16.2 °F 1007.0 in Calm     50 % 0.0 in 0.0 W/m2 CLR
23:54 27.3 °F 16.0 °F 1007.0 in Calm     50 % 0.0 in 0.0 W/m2 CLR
23:59 27.1 °F 16.1 °F 1007.0 in Calm     51 % 0.0 in 0.0 W/m2 CLR
Lo Temps de Massalio
Compliments of Weather Underground - 1.25 mb